createdAt,value
2022-08-12T00:00:02.797Z,22.13
2022-08-12T00:02:48.861Z,23.67
2022-08-12T00:05:34.855Z,19.17
2022-08-12T00:08:30.918Z,21.23
2022-08-12T00:11:24.016Z,22.48
2022-08-12T00:14:09.931Z,22.83
2022-08-12T00:16:55.768Z,20.83
2022-08-12T00:19:41.629Z,19.27
2022-08-12T00:22:27.267Z,16.90
2022-08-12T00:25:19.760Z,22.98
2022-08-12T00:28:05.894Z,17.80
2022-08-12T00:30:52.289Z,19.02
2022-08-12T00:33:52.523Z,20.50
2022-08-12T00:36:45.866Z,18.15
2022-08-12T00:39:34.845Z,16.20
2022-08-12T00:42:11.100Z,18.42
2022-08-12T00:44:40.144Z,22.48
2022-08-12T00:47:07.564Z,17.27
2022-08-12T00:49:51.533Z,17.77
2022-08-12T00:52:19.168Z,16.30
2022-08-12T00:54:54.820Z,17.23
2022-08-12T00:57:30.137Z,17.75
2022-08-12T01:00:08.571Z,18.70
2022-08-12T01:02:45.727Z,19.58
2022-08-12T01:05:35.550Z,17.63
2022-08-12T01:08:22.018Z,15.82
2022-08-12T01:11:07.831Z,17.73
2022-08-12T01:13:36.290Z,17.48
2022-08-12T01:16:05.306Z,16.38
2022-08-12T01:18:34.361Z,18.80
2022-08-12T01:21:18.258Z,18.85
2022-08-12T01:23:51.174Z,20.55
2022-08-12T01:26:23.581Z,16.92
2022-08-12T01:28:54.530Z,18.33
2022-08-12T01:31:23.350Z,16.17
2022-08-12T01:34:35.381Z,15.75
2022-08-12T01:37:02.020Z,19.27
2022-08-12T01:39:33.697Z,17.83
2022-08-12T01:42:08.465Z,18.02
2022-08-12T01:44:36.401Z,15.07
2022-08-12T01:47:32.899Z,17.52
2022-08-12T01:50:36.832Z,13.95
2022-08-12T01:53:06.408Z,17.90
2022-08-12T01:55:35.212Z,16.83
2022-08-12T01:58:27.627Z,15.32
2022-08-12T02:01:04.719Z,15.18
2022-08-12T02:04:05.587Z,15.77
2022-08-12T02:09:47.634Z,16.25
2022-08-12T02:12:28.682Z,13.98
2022-08-12T02:15:22.676Z,15.93
2022-08-12T02:18:12.564Z,13.52
2022-08-12T02:21:29.830Z,14.32
2022-08-12T02:23:58.206Z,14.38
2022-08-12T02:26:25.568Z,14.77
2022-08-12T02:28:52.866Z,12.95
2022-08-12T02:31:20.406Z,13.63
2022-08-12T02:33:47.698Z,16.23
2022-08-12T02:36:16.515Z,13.48
2022-08-12T02:38:44.093Z,16.90
2022-08-12T02:41:12.226Z,14.13
2022-08-12T02:43:44.757Z,13.32
2022-08-12T02:46:14.776Z,14.95
2022-08-12T02:48:51.542Z,14.50
2022-08-12T02:51:20.850Z,13.82
2022-08-12T02:54:05.109Z,14.90
2022-08-12T02:56:40.814Z,14.07
2022-08-12T02:59:10.675Z,15.00
2022-08-12T03:01:47.518Z,16.30
2022-08-12T03:04:33.403Z,14.88
2022-08-12T03:07:06.856Z,15.50
2022-08-12T03:10:04.610Z,15.10
2022-08-12T03:12:25.024Z,25.23
2022-08-12T03:14:53.137Z,15.40
2022-08-12T03:17:26.324Z,12.77
2022-08-12T03:20:10.071Z,15.93
2022-08-12T03:22:42.219Z,15.02
2022-08-12T03:25:16.273Z,14.18
2022-08-12T03:27:51.785Z,14.68
2022-08-12T03:30:19.504Z,14.13
2022-08-12T03:32:50.958Z,12.63
2022-08-12T03:35:40.606Z,19.58
2022-08-12T03:38:12.135Z,13.23
2022-08-12T03:41:09.329Z,20.95
2022-08-12T03:44:00.288Z,15.30
2022-08-12T03:46:50.584Z,14.13
2022-08-12T03:49:36.531Z,13.50
2022-08-12T03:52:22.925Z,16.05
2022-08-12T03:55:10.179Z,14.18
2022-08-12T03:57:56.144Z,12.73
2022-08-12T04:00:24.181Z,18.05
2022-08-12T04:03:01.673Z,15.73
2022-08-12T04:05:54.393Z,17.10
2022-08-12T04:08:17.207Z,11.45
2022-08-12T04:11:03.048Z,15.98
2022-08-12T04:13:30.430Z,17.65
2022-08-12T04:15:58.641Z,19.98
2022-08-12T04:18:26.062Z,12.77
2022-08-12T04:20:53.475Z,15.50
2022-08-12T04:23:20.754Z,15.13
2022-08-12T04:25:48.066Z,15.35
2022-08-12T04:28:15.363Z,12.43
2022-08-12T04:30:43.263Z,17.30
2022-08-12T04:33:10.672Z,13.85
2022-08-12T04:35:37.909Z,14.20
2022-08-12T04:38:05.440Z,15.32
2022-08-12T04:40:34.037Z,12.60
2022-08-12T04:43:01.827Z,16.17
2022-08-12T04:45:30.660Z,13.68
2022-08-12T04:47:58.046Z,17.83
2022-08-12T04:50:34.779Z,14.32
2022-08-12T04:53:08.252Z,16.83
2022-08-12T04:55:37.645Z,17.27
2022-08-12T04:58:05.307Z,16.45
2022-08-12T05:00:33.183Z,17.98
2022-08-12T05:03:00.620Z,19.45
2022-08-12T05:05:30.348Z,16.85
2022-08-12T05:08:00.039Z,16.05
2022-08-12T05:10:33.370Z,14.48
2022-08-12T05:13:28.489Z,20.88
2022-08-12T05:16:03.856Z,21.25
2022-08-12T05:18:39.464Z,17.25
2022-08-12T05:21:10.333Z,16.73
2022-08-12T05:23:38.159Z,14.15
2022-08-12T05:26:06.272Z,14.60
2022-08-12T05:28:33.690Z,11.15
2022-08-12T05:31:03.901Z,12.55
2022-08-12T05:33:37.891Z,12.87
2022-08-12T05:36:07.729Z,9.82
2022-08-12T05:38:54.232Z,13.43
2022-08-12T05:41:21.635Z,9.23
2022-08-12T05:43:56.990Z,10.63
2022-08-12T05:46:25.090Z,10.57
2022-08-12T05:48:54.526Z,11.98
2022-08-12T05:51:40.691Z,10.60
2022-08-12T05:54:09.102Z,8.73
2022-08-12T05:56:36.526Z,10.80
2022-08-12T05:59:07.441Z,9.63
2022-08-12T06:02:12.620Z,6.38
2022-08-12T06:04:22.326Z,9.48
2022-08-12T06:06:53.480Z,11.05
2022-08-12T06:09:22.800Z,7.88
2022-08-12T06:12:05.998Z,9.10
2022-08-12T06:14:37.043Z,12.20
2022-08-12T06:17:05.560Z,10.02
2022-08-12T06:20:29.455Z,11.35
2022-08-12T06:22:20.271Z,10.68
2022-08-12T06:24:49.898Z,8.98
2022-08-12T06:27:18.889Z,7.55
2022-08-12T06:30:10.032Z,8.50
2022-08-12T06:32:35.684Z,8.82
2022-08-12T06:35:25.073Z,10.98
2022-08-12T06:37:56.387Z,7.78
2022-08-12T06:40:43.206Z,11.68
2022-08-12T06:43:10.469Z,12.80
2022-08-12T06:45:45.929Z,12.77
2022-08-12T06:48:14.064Z,13.27
2022-08-12T06:50:42.531Z,9.02
2022-08-12T06:53:11.397Z,11.55
2022-08-12T06:55:56.690Z,15.82
2022-08-12T06:58:28.916Z,10.18
2022-08-12T07:00:57.774Z,12.18
2022-08-12T07:03:28.683Z,14.90
2022-08-12T07:06:00.624Z,14.02
2022-08-12T07:08:29.206Z,14.23
2022-08-12T07:10:59.266Z,11.98
2022-08-12T07:13:28.020Z,13.98
2022-08-12T07:15:58.804Z,14.93
2022-08-12T07:18:44.048Z,17.27
2022-08-12T07:21:12.249Z,15.80
2022-08-12T07:23:40.210Z,18.45
2022-08-12T07:26:09.606Z,24.08
2022-08-12T07:28:41.790Z,22.65
2022-08-12T07:31:09.365Z,31.17
2022-08-12T07:33:38.537Z,30.23
2022-08-12T07:36:13.966Z,32.42
2022-08-12T07:38:44.483Z,19.98
2022-08-12T07:41:32.272Z,19.75
2022-08-12T07:44:05.359Z,20.15
2022-08-12T07:46:40.982Z,20.15
2022-08-12T07:49:10.233Z,18.45
2022-08-12T07:51:37.807Z,21.38
2022-08-12T07:54:09.324Z,18.67
2022-08-12T07:56:38.313Z,23.70
2022-08-12T07:59:06.495Z,23.38
2022-08-12T08:01:33.993Z,26.08
2022-08-12T08:04:19.932Z,21.38
2022-08-12T08:06:47.432Z,25.05
2022-08-12T08:09:16.253Z,23.52
2022-08-12T08:12:02.217Z,26.65
2022-08-12T08:14:31.775Z,21.23
2022-08-12T08:17:00.215Z,26.77
2022-08-12T08:19:29.338Z,21.77
2022-08-12T08:21:58.882Z,20.25
2022-08-12T08:24:28.113Z,19.20
2022-08-12T08:26:57.282Z,19.48
2022-08-12T08:29:24.823Z,19.20
2022-08-12T08:31:54.828Z,15.18
2022-08-12T08:34:47.197Z,15.88
2022-08-12T08:37:10.691Z,16.90
2022-08-12T08:39:42.894Z,18.70
2022-08-12T08:42:28.791Z,15.48
2022-08-12T08:44:58.819Z,14.88
2022-08-12T08:47:26.295Z,16.92
2022-08-12T08:49:54.764Z,16.60
2022-08-12T08:52:38.940Z,13.55
2022-08-12T08:55:20.838Z,15.80
2022-08-12T08:57:53.636Z,15.13
2022-08-12T09:00:21.573Z,16.90
2022-08-12T09:02:58.703Z,12.77
2022-08-12T09:05:28.027Z,16.83
2022-08-12T09:08:13.150Z,14.80
2022-08-12T09:14:09.869Z,17.42
2022-08-12T09:16:20.789Z,16.30
2022-08-12T09:18:52.204Z,13.73
2022-08-12T09:21:23.254Z,13.98
2022-08-12T09:24:00.666Z,16.30
2022-08-12T09:30:11.453Z,14.73
2022-08-12T09:32:55.630Z,14.20
2022-08-12T09:34:57.749Z,14.35
2022-08-12T09:37:26.810Z,13.20
2022-08-12T09:40:02.543Z,19.15
2022-08-12T09:43:17.457Z,14.85
2022-08-12T09:46:11.195Z,18.40
2022-08-12T09:48:36.701Z,14.18
2022-08-12T09:51:16.569Z,18.10
2022-08-12T09:54:05.568Z,17.05
2022-08-12T09:57:01.848Z,15.60
2022-08-12T10:00:15.874Z,16.15
2022-08-12T10:02:42.719Z,15.68
2022-08-12T10:05:00.601Z,12.43
2022-08-12T10:07:39.537Z,19.33
2022-08-12T10:10:24.266Z,18.90
2022-08-12T10:13:12.808Z,15.75
2022-08-12T10:16:01.580Z,15.63
2022-08-12T10:18:35.512Z,21.73
2022-08-12T10:21:19.646Z,14.13
2022-08-12T10:23:51.415Z,17.63
2022-08-12T10:26:39.515Z,20.42
2022-08-12T10:30:03.118Z,21.15
2022-08-12T10:32:43.125Z,16.67
2022-08-12T10:35:09.535Z,15.45
2022-08-12T10:38:39.346Z,16.85
2022-08-12T10:40:31.531Z,14.80
2022-08-12T10:43:19.435Z,14.98
2022-08-12T10:45:49.599Z,18.80
2022-08-12T10:48:33.470Z,15.10
2022-08-12T10:51:49.007Z,16.15
2022-08-12T10:54:00.959Z,12.73
2022-08-12T10:56:34.711Z,16.80
2022-08-12T10:59:10.794Z,13.50
2022-08-12T11:04:16.832Z,11.02
2022-08-12T11:04:39.380Z,14.25
2022-08-12T11:08:36.596Z,12.38
2022-08-12T11:10:01.511Z,13.43
2022-08-12T11:12:54.770Z,9.38
2022-08-12T11:15:33.174Z,11.80
2022-08-12T11:18:17.792Z,10.93
2022-08-12T11:20:47.552Z,10.57
2022-08-12T11:23:36.259Z,14.25
2022-08-12T11:26:05.379Z,12.38
2022-08-12T11:28:37.423Z,11.48
2022-08-12T11:31:07.227Z,11.77
2022-08-12T11:34:05.621Z,15.10
2022-08-12T11:36:27.332Z,14.23
2022-08-12T11:38:55.823Z,10.00
2022-08-12T11:41:31.842Z,12.80
2022-08-12T11:44:30.647Z,12.05
2022-08-12T11:46:51.397Z,13.90
2022-08-12T11:49:32.437Z,11.82
2022-08-12T11:52:01.324Z,13.10
2022-08-12T11:54:29.569Z,13.68
2022-08-12T11:56:59.854Z,11.77
2022-08-12T12:02:20.188Z,11.25
2022-08-12T12:04:52.478Z,9.98
2022-08-12T12:08:39.053Z,11.98
2022-08-12T12:10:12.426Z,11.33
2022-08-12T12:12:41.333Z,15.05
2022-08-12T12:15:09.813Z,11.40
2022-08-12T12:17:39.058Z,10.35
2022-08-12T12:20:11.590Z,17.10
2022-08-12T12:22:40.800Z,14.75
2022-08-12T12:25:13.677Z,10.88
2022-08-12T12:28:06.311Z,9.93
2022-08-12T12:30:34.638Z,11.80
2022-08-12T12:33:02.036Z,12.20
2022-08-12T12:36:16.654Z,11.98
2022-08-12T12:38:17.552Z,12.70
2022-08-12T12:40:45.893Z,9.85
2022-08-12T12:43:28.599Z,11.63
2022-08-12T12:46:05.652Z,13.63
2022-08-12T12:48:32.994Z,14.77
2022-08-12T12:51:49.030Z,11.30
2022-08-12T12:54:07.489Z,11.90
2022-08-12T12:56:42.562Z,13.57
2022-08-12T12:59:34.960Z,13.13
2022-08-12T13:02:08.142Z,11.30
2022-08-12T13:04:37.218Z,15.82
2022-08-12T13:07:06.449Z,17.05
2022-08-12T13:09:36.127Z,11.00
2022-08-12T13:12:09.022Z,12.90
2022-08-12T13:14:39.835Z,11.70
2022-08-12T13:17:14.452Z,10.98
2022-08-12T13:19:48.397Z,11.57
2022-08-12T13:22:21.246Z,21.02
2022-08-12T13:24:55.008Z,14.40
2022-08-12T13:27:35.181Z,15.48
2022-08-12T13:30:13.061Z,11.02
2022-08-12T13:32:57.700Z,10.13
2022-08-12T13:36:02.935Z,7.60
2022-08-12T13:38:13.740Z,9.80
2022-08-12T13:40:41.050Z,12.52
2022-08-12T13:43:08.342Z,9.63
2022-08-12T13:45:41.037Z,12.88
2022-08-12T13:48:08.686Z,9.30
2022-08-12T13:50:40.564Z,7.15
2022-08-12T13:53:24.670Z,9.05
2022-08-12T13:56:05.605Z,10.90
2022-08-12T14:01:06.357Z,15.52
2022-08-12T14:03:50.677Z,6.13
2022-08-12T14:06:19.046Z,9.80
2022-08-12T14:08:49.909Z,14.10
2022-08-12T14:11:19.174Z,6.72
2022-08-12T14:14:04.206Z,6.20
2022-08-12T14:16:46.986Z,10.00
2022-08-12T14:19:25.037Z,7.68
2022-08-12T14:22:01.206Z,7.70
2022-08-12T14:24:35.589Z,8.35
2022-08-12T14:29:56.244Z,8.32
2022-08-12T14:32:24.116Z,5.72
2022-08-12T14:34:52.974Z,8.15
2022-08-12T14:37:57.279Z,6.38
2022-08-12T14:40:18.365Z,5.68
2022-08-12T14:42:46.949Z,6.50
2022-08-12T14:45:14.643Z,4.82
2022-08-12T14:47:51.353Z,9.23
2022-08-12T14:50:41.230Z,6.45
2022-08-12T14:59:20.681Z,3.95
2022-08-12T15:01:52.171Z,6.63
2022-08-12T15:04:28.672Z,6.75
2022-08-12T15:06:56.567Z,5.10
2022-08-12T15:09:29.079Z,9.77
2022-08-12T15:12:03.522Z,6.82
2022-08-12T15:14:32.155Z,6.25
2022-08-12T15:20:11.241Z,7.97
2022-08-12T15:22:39.647Z,8.75
2022-08-12T15:25:07.651Z,7.65
2022-08-12T15:28:03.851Z,6.63
2022-08-12T15:30:30.432Z,7.68
2022-08-12T15:32:58.364Z,5.65
2022-08-12T15:35:31.258Z,5.75
2022-08-12T15:38:12.028Z,7.50
2022-08-12T15:40:48.463Z,5.35
2022-08-12T15:44:16.458Z,5.07
2022-08-12T15:46:06.969Z,4.10
2022-08-12T15:48:47.156Z,9.35
2022-08-12T15:51:59.715Z,5.60
2022-08-12T15:54:34.917Z,8.20
2022-08-12T15:57:08.387Z,9.10
2022-08-12T16:00:00.653Z,5.90
2022-08-12T16:02:27.053Z,5.40
2022-08-12T16:04:55.124Z,3.97
2022-08-12T16:07:30.248Z,6.22
2022-08-12T16:10:08.797Z,6.80
2022-08-12T16:12:43.184Z,5.00
2022-08-12T16:15:15.250Z,4.70
2022-08-12T16:18:18.615Z,8.20
2022-08-12T16:20:34.018Z,6.78
2022-08-12T16:23:14.837Z,9.05
2022-08-12T16:26:05.190Z,10.02
2022-08-12T16:28:36.521Z,6.43
2022-08-12T16:31:05.563Z,10.77
2022-08-12T16:33:56.450Z,7.30
2022-08-12T16:36:29.255Z,9.73
2022-08-12T16:38:56.899Z,7.47
2022-08-12T16:41:24.375Z,7.03
2022-08-12T16:46:32.135Z,6.38
2022-08-12T16:49:08.705Z,7.80
2022-08-12T16:51:45.940Z,6.15
2022-08-12T16:54:16.751Z,8.98
2022-08-12T16:56:54.640Z,10.48
2022-08-12T16:59:30.758Z,8.13
2022-08-12T17:01:58.753Z,7.28
2022-08-12T17:04:28.195Z,9.10
2022-08-12T17:06:56.008Z,7.45
2022-08-12T17:09:25.114Z,9.43
2022-08-12T17:11:52.922Z,10.52
2022-08-12T17:14:23.489Z,7.78
2022-08-12T17:16:55.426Z,9.45
2022-08-12T17:20:29.617Z,14.05
2022-08-12T17:22:15.041Z,11.45
2022-08-12T17:24:43.830Z,9.68
2022-08-12T17:27:16.059Z,8.15
2022-08-12T17:30:03.033Z,8.45
2022-08-12T17:32:35.064Z,9.00
2022-08-12T17:35:21.057Z,6.57
2022-08-12T17:37:54.543Z,6.97
2022-08-12T17:40:35.805Z,11.88
2022-08-12T17:43:51.779Z,9.00
2022-08-12T17:45:58.967Z,7.85
2022-08-12T17:48:34.847Z,10.50
2022-08-12T17:51:15.525Z,7.95
2022-08-12T17:54:10.240Z,8.60
2022-08-12T17:56:36.860Z,5.95
2022-08-12T17:59:04.364Z,12.00
2022-08-12T18:01:35.925Z,8.85
2022-08-12T18:04:22.390Z,9.52
2022-08-12T18:06:55.778Z,11.35
2022-08-12T18:09:35.991Z,13.45
2022-08-12T18:12:24.479Z,11.27
2022-08-12T18:14:58.325Z,7.47
2022-08-12T18:17:29.189Z,10.32
2022-08-12T18:20:05.750Z,7.57
2022-08-12T18:22:35.666Z,11.63
2022-08-12T18:25:06.481Z,9.30
2022-08-12T18:27:44.685Z,7.50
2022-08-12T18:30:21.055Z,9.82
2022-08-12T18:33:03.190Z,10.18
2022-08-12T18:35:46.538Z,9.20
2022-08-12T18:38:19.911Z,9.40
2022-08-12T18:41:06.050Z,10.07
2022-08-12T18:43:39.111Z,9.93
2022-08-12T18:46:23.692Z,7.90
2022-08-12T18:48:57.014Z,12.90
2022-08-12T18:51:49.336Z,9.18
2022-08-12T18:54:27.024Z,10.18
2022-08-12T18:56:55.680Z,13.13
2022-08-12T19:00:01.516Z,9.98
2022-08-12T19:02:20.629Z,9.88
2022-08-12T19:04:53.510Z,11.18
2022-08-12T19:07:29.718Z,9.68
2022-08-12T19:10:13.556Z,11.43
2022-08-12T19:12:59.514Z,12.77
2022-08-12T19:15:27.367Z,15.05
2022-08-12T19:18:02.984Z,14.00
2022-08-12T19:20:32.023Z,11.05
2022-08-12T19:23:02.396Z,8.60
2022-08-12T19:26:00.136Z,9.80
2022-08-12T19:28:30.080Z,11.15
2022-08-12T19:31:58.339Z,11.15
2022-08-12T19:35:06.989Z,11.50
2022-08-12T19:37:27.373Z,12.43
2022-08-12T19:40:09.128Z,11.43
2022-08-12T19:42:53.363Z,15.25
2022-08-12T19:45:22.345Z,17.35
2022-08-12T19:47:49.761Z,10.18
2022-08-12T19:50:20.196Z,12.40
2022-08-12T19:52:47.808Z,10.45
2022-08-12T19:55:21.545Z,7.82
2022-08-12T19:58:02.376Z,14.90
2022-08-12T20:00:34.928Z,10.82
2022-08-12T20:03:04.622Z,11.95
2022-08-12T20:06:06.584Z,10.57
2022-08-12T20:08:34.310Z,11.02
2022-08-12T20:12:10.297Z,10.27
2022-08-12T20:14:01.469Z,16.38
2022-08-12T20:16:56.524Z,11.00
2022-08-12T20:19:53.167Z,8.32
2022-08-12T20:22:24.114Z,11.07
2022-08-12T20:25:07.231Z,11.52
2022-08-12T20:28:03.255Z,16.23
2022-08-12T20:30:37.609Z,8.85
2022-08-12T20:33:17.348Z,11.27
2022-08-12T20:36:13.007Z,10.68
2022-08-12T20:38:39.653Z,10.43
2022-08-12T20:41:16.159Z,8.27
2022-08-12T20:43:44.294Z,9.85
2022-08-12T20:46:13.654Z,8.40
2022-08-12T20:48:43.642Z,13.60
2022-08-12T20:51:15.965Z,12.32
2022-08-12T20:53:58.931Z,10.20
2022-08-12T20:56:37.159Z,11.25
2022-08-12T20:59:14.865Z,11.27
2022-08-12T21:01:48.595Z,10.68
2022-08-12T21:04:35.961Z,11.23
2022-08-12T21:07:09.266Z,14.30
2022-08-12T21:09:42.177Z,12.75
2022-08-12T21:12:27.368Z,10.55
2022-08-12T21:15:17.400Z,10.38
2022-08-12T21:18:08.176Z,7.85
2022-08-12T21:20:36.923Z,7.40
2022-08-12T21:23:06.460Z,8.35
2022-08-12T21:25:35.950Z,8.23
2022-08-12T21:28:13.280Z,10.20
2022-08-12T21:31:10.504Z,6.38
2022-08-12T21:33:32.075Z,8.80
2022-08-12T21:36:22.778Z,9.75
2022-08-12T21:39:18.543Z,14.07
2022-08-12T21:41:50.914Z,10.57
2022-08-12T21:44:24.150Z,9.90
2022-08-12T21:47:19.972Z,11.93
2022-08-12T21:50:03.285Z,12.60
2022-08-12T21:52:36.504Z,10.75
2022-08-12T21:55:08.623Z,12.73
2022-08-12T21:57:53.083Z,11.48
2022-08-12T22:00:33.084Z,9.02
2022-08-12T22:04:11.055Z,11.75
2022-08-12T22:06:26.500Z,8.43
2022-08-12T22:09:04.080Z,11.40
2022-08-12T22:11:41.945Z,10.03
2022-08-12T22:14:17.956Z,11.38
2022-08-12T22:16:50.535Z,9.85
2022-08-12T22:19:22.639Z,10.18
2022-08-12T22:21:53.384Z,8.13
2022-08-12T22:24:26.829Z,10.27
2022-08-12T22:26:59.251Z,15.77
2022-08-12T22:29:45.027Z,8.98
2022-08-12T22:32:15.750Z,11.43
2022-08-12T22:34:44.565Z,10.02
2022-08-12T22:37:19.790Z,11.60
2022-08-12T22:39:49.269Z,15.20
2022-08-12T22:42:35.952Z,9.57
2022-08-12T22:45:23.268Z,8.05
2022-08-12T22:47:55.023Z,14.13
2022-08-12T22:50:29.407Z,9.07
2022-08-12T22:53:16.598Z,9.50
2022-08-12T22:56:00.342Z,12.65
2022-08-12T22:58:33.861Z,9.15
2022-08-12T23:01:02.404Z,9.95
2022-08-12T23:03:48.115Z,8.52
2022-08-12T23:06:23.896Z,14.57
2022-08-12T23:08:52.656Z,12.07
2022-08-12T23:11:23.677Z,12.55
2022-08-12T23:13:57.103Z,10.38
2022-08-12T23:16:31.029Z,12.13
2022-08-12T23:19:10.952Z,12.60
2022-08-12T23:22:04.146Z,10.77
2022-08-12T23:24:53.693Z,8.90
2022-08-12T23:27:50.354Z,12.30
2022-08-12T23:30:24.762Z,8.80
2022-08-12T23:33:00.134Z,9.13
2022-08-12T23:35:45.655Z,11.13
2022-08-12T23:38:31.118Z,15.70
2022-08-12T23:41:03.844Z,8.90
2022-08-12T23:43:39.472Z,10.85
2022-08-12T23:46:19.236Z,15.45
2022-08-12T23:48:48.127Z,12.85
2022-08-12T23:51:25.323Z,8.65
2022-08-12T23:53:59.706Z,12.57
2022-08-12T23:56:29.250Z,9.63
2022-08-12T23:58:57.424Z,7.57
